KHUA/HUA METAR and TAF weather

Enter ICAO airport designator
Station Type Date Time Source
KHUA METAR 2019/04/19 10:28 UTC NOAA

KHUA 191028Z AUTO 24007KT 10SM OVC006 16/15 A2947 RMK AO2 LTG DSNT E SLP975


Station Type Date Time Source
KHUA Decoded METAR 2019/04/19 10:28 UTC NOAA

Station name not available
Apr 19, 2019 - 06:28 AM EDT / 2019.04.19 1028 UTC
Wind: from the WSW (240 degrees) at 8 MPH (7 KT):0
Visibility: 10 mile(s):0
Sky conditions: overcast
Weather: Lightning observed
Temperature: 60 F (16 C)
Dew Point: 59 F (15 C)
Relative Humidity: 93%
Pressure (altimeter): 29.47 in. Hg (997 hPa)
ob: KHUA 191028Z AUTO 24007KT 10SM OVC006 16/15 A2947 RMK AO2 LTG DSNT E SLP975
cycle: 10

Station Type Date Time Source
KHUA TAF UTC NOAA

Error!

Example: see airport list